This is the latest recevied weather packets stored in our database for station/object IZ1UKX-13. If no packets are shown the sender has not sent any weather packets the latest 1 day(s).
| Time | Temp. | Humidity | Pressure | Rain* | Wind** | Luminosity | Snow |
|---|---|---|---|---|---|---|---|
| 1778076724 | 18.33° C | 66% | 1023.2 hPa | 0 mm | - | 0 W/m² | - |
| 1778074748 | 18.89° C | 65% | 1023.2 hPa | 0 mm | - | 0 W/m² | - |
| 1778073548 | 18.33° C | 68% | 1023.2 hPa | 0 mm | - | 0 W/m² | - |
| 1778073248 | 17.78° C | 73% | 1023.6 hPa | 0 mm | - | 0 W/m² | - |
| 1778072948 | 17.22° C | 74% | 1023.6 hPa | 0 mm | - | 0 W/m² | - |
| 1778072648 | 17.22° C | 74% | 1023.6 hPa | 0 mm | - | 0 W/m² | - |
| 1778071448 | 18.33° C | 70% | 1023.2 hPa | 0 mm | - | 0 W/m² | - |
| 1778069948 | 18.33° C | 75% | 1023.2 hPa | 0 mm | - | 0 W/m² | - |
| 1778067548 | 18.33° C | 69% | 1023.2 hPa | 0 mm | - | 0 W/m² | - |
| 1778066648 | 17.78° C | 70% | 1023.6 hPa | 0 mm | - | 0 W/m² | - |
| 1778064548 | 17.78° C | 72% | 1023.2 hPa | 0 mm | - | 0 W/m² | - |
| 1778064248 | 18.33° C | 71% | 1023.2 hPa | 0 mm | - | 0 W/m² | - |
| 1778063348 | 17.22° C | 75% | 1023.6 hPa | 0 mm | - | 0 W/m² | - |
| 1778063048 | 17.78° C | 76% | 1023.6 hPa | 0 mm | - | 0 W/m² | - |
| 1778062303 | 16.67° C | 80% | 1023.6 hPa | 0 mm | - | 0 W/m² | - |
| 1778062063 | 16.11° C | 80% | 1023.6 hPa | 0 mm | - | 0 W/m² | - |
| 1778060863 | 16.11° C | 83% | 1023.6 hPa | 0 mm | - | 0 W/m² | - |
| 1778060263 | 16.11° C | 82% | 1023.6 hPa | 0 mm | - | 0 W/m² | - |
| 1778059963 | 16.67° C | 82% | 1023.6 hPa | 0 mm | - | 0 W/m² | - |
| 1778059663 | 16.11° C | 83% | 1023.6 hPa | 0 mm | - | 0 W/m² | - |
| 1778059363 | 16.11° C | 85% | 1023.6 hPa | 0 mm | - | 0 W/m² | - |
| 1778058462 | 15° C | 88% | 1024 hPa | 0 mm | - | 0 W/m² | - |
| 1778058163 | 15° C | 87% | 1024 hPa | 0 mm | - | 0 W/m² | - |
| 1778057862 | 15.56° C | 86% | 1024 hPa | 0 mm | - | 0 W/m² | - |
| 1778057563 | 15° C | 89% | 1024 hPa | 0 mm | - | 0 W/m² | - |
* Rain latest hour (hover to see other rain measurements)
** Current wind speed in m/s (hover to see current wind gust speed)